Time;durP1;ratioP1;P1;durP2;ratioP2;P2;SDS_P1;SDS_P2;PMS_P1;PMS_P2;Temp;Humidity;BMP_temperature;BMP_pressure;BME280_temperature;BME280_humidity;BME280_pressure;Samples;Min_cycle;Max_cycle;Signal;HPM_P1;HPM_P2
2023/11/06 00:02:24;;;;;;;5.28;2.90;;;;;;;;;;9952752;28;20058;-75
2023/11/06 00:07:17;;;;;;;7.05;2.83;;;;;;;;;;9952632;28;20447;-75
2023/11/06 00:12:11;;;;;;;6.43;3.20;;;;;;;;;;9951959;28;20524;-75
2023/11/06 00:17:03;;;;;;;11.05;3.17;;;;;;;;;;9952127;28;20129;-74
2023/11/06 00:21:56;;;;;;;4.93;2.78;;;;;;;;;;9952437;28;20059;-74
2023/11/06 00:26:49;;;;;;;2.67;2.30;;;;;;;;;;9953816;28;20137;-74
2023/11/06 00:31:41;;;;;;;4.95;1.98;;;;;;;;;;9958141;28;20077;-74
2023/11/06 00:36:33;;;;;;;7.57;2.58;;;;;;;;;;9960124;28;20046;-75
2023/11/06 00:41:25;;;;;;;3.92;2.97;;;;;;;;;;9971838;28;20481;-75
2023/11/06 00:46:17;;;;;;;4.70;3.10;;;;;;;;;;9954093;28;20094;-75
2023/11/06 00:51:09;;;;;;;3.10;2.55;;;;;;;;;;9967404;28;20077;-75
2023/11/06 00:56:02;;;;;;;8.35;3.00;;;;;;;;;;9950292;28;20552;-75
2023/11/06 01:00:54;;;;;;;4.80;2.35;;;;;;;;;;9971173;28;20348;-74
2023/11/06 01:05:46;;;;;;;4.22;2.70;;;;;;;;;;9985325;28;20042;-74
2023/11/06 01:10:38;;;;;;;4.45;2.13;;;;;;;;;;9966324;28;20042;-74
2023/11/06 01:15:31;;;;;;;5.20;2.10;;;;;;;;;;9985458;28;20046;-74
2023/11/06 01:20:24;;;;;;;2.30;2.10;;;;;;;;;;9987275;28;20101;-74
2023/11/06 01:25:16;;;;;;;6.65;2.78;;;;;;;;;;9985850;28;20046;-74
2023/11/06 01:30:11;;;;;;;5.47;2.20;;;;;;;;;;9986386;28;20038;-74
2023/11/06 01:35:04;;;;;;;6.38;2.65;;;;;;;;;;9985838;28;20130;-74
2023/11/06 01:39:56;;;;;;;5.20;2.63;;;;;;;;;;9984561;28;20050;-74
2023/11/06 01:44:48;;;;;;;3.10;1.90;;;;;;;;;;9986792;28;20061;-74
2023/11/06 01:49:40;;;;;;;6.40;3.03;;;;;;;;;;9985758;28;20480;-74
2023/11/06 01:54:33;;;;;;;3.58;1.88;;;;;;;;;;9985125;28;20110;-74
2023/11/06 01:59:25;;;;;;;4.88;2.25;;;;;;;;;;9986494;28;20088;-74
2023/11/06 02:04:17;;;;;;;8.20;2.83;;;;;;;;;;9969194;28;20603;-75
2023/11/06 02:09:09;;;;;;;6.10;2.25;;;;;;;;;;10005753;28;20042;-76
2023/11/06 02:14:02;;;;;;;5.63;2.10;;;;;;;;;;9997806;28;20046;-74
2023/11/06 02:18:54;;;;;;;5.13;2.28;;;;;;;;;;9985243;28;20038;-74
2023/11/06 02:23:47;;;;;;;4.00;2.20;;;;;;;;;;9985820;28;20047;-74
2023/11/06 02:28:39;;;;;;;3.85;2.42;;;;;;;;;;9985791;28;20070;-74
2023/11/06 02:33:30;;;;;;;3.83;2.22;;;;;;;;;;9985799;28;20039;-74
2023/11/06 02:38:22;;;;;;;3.65;1.95;;;;;;;;;;9983682;28;20057;-74
2023/11/06 02:43:14;;;;;;;5.55;2.40;;;;;;;;;;9960345;28;20047;-74
2023/11/06 02:48:06;;;;;;;7.75;2.30;;;;;;;;;;9949851;28;20371;-74
2023/11/06 02:52:59;;;;;;;3.92;2.63;;;;;;;;;;9965420;28;20043;-74
2023/11/06 02:57:51;;;;;;;30.02;3.40;;;;;;;;;;9965398;28;20497;-75
2023/11/06 03:02:43;;;;;;;5.30;2.40;;;;;;;;;;9956105;28;20134;-75
2023/11/06 03:07:35;;;;;;;5.32;2.92;;;;;;;;;;9956777;28;20048;-74
2023/11/06 03:12:27;;;;;;;7.53;3.10;;;;;;;;;;9955205;28;20039;-74
2023/11/06 03:17:19;;;;;;;5.35;3.20;;;;;;;;;;9954941;28;20074;-75
2023/11/06 03:22:12;;;;;;;6.32;2.72;;;;;;;;;;9954722;28;20406;-74
2023/11/06 03:27:04;;;;;;;6.82;2.83;;;;;;;;;;9955933;28;20117;-76
2023/11/06 03:31:56;;;;;;;5.32;3.78;;;;;;;;;;9954827;28;20042;-74
2023/11/06 03:36:48;;;;;;;8.18;3.58;;;;;;;;;;9953751;28;20049;-76
2023/11/06 03:41:40;;;;;;;2.92;2.63;;;;;;;;;;9955357;28;20051;-74
2023/11/06 03:46:33;;;;;;;7.72;3.58;;;;;;;;;;9969003;28;20066;-76
2023/11/06 03:51:25;;;;;;;5.30;3.45;;;;;;;;;;9955639;28;20377;-75
2023/11/06 03:56:17;;;;;;;5.68;3.08;;;;;;;;;;9952608;28;20130;-74
2023/11/06 04:01:09;;;;;;;4.40;3.45;;;;;;;;;;9953728;28;20043;-74
2023/11/06 04:06:02;;;;;;;7.10;3.50;;;;;;;;;;9953300;28;20043;-75
2023/11/06 04:10:55;;;;;;;4.25;3.85;;;;;;;;;;9954580;28;20046;-74
2023/11/06 04:15:47;;;;;;;4.10;3.53;;;;;;;;;;9954061;28;20118;-76
2023/11/06 04:20:41;;;;;;;6.10;4.95;;;;;;;;;;9953216;28;20047;-74
2023/11/06 04:25:33;;;;;;;7.85;3.78;;;;;;;;;;9952301;28;20541;-77
2023/11/06 04:30:25;;;;;;;5.80;4.10;;;;;;;;;;9954023;28;20046;-77
2023/11/06 04:35:17;;;;;;;5.40;3.97;;;;;;;;;;9952493;28;20501;-76
2023/11/06 04:40:11;;;;;;;6.05;3.63;;;;;;;;;;9951828;28;20461;-76
2023/11/06 04:45:04;;;;;;;6.95;4.35;;;;;;;;;;9951336;28;20042;-74
2023/11/06 04:49:56;;;;;;;7.28;3.65;;;;;;;;;;9952756;28;20049;-73
2023/11/06 04:54:48;;;;;;;6.55;4.78;;;;;;;;;;9951862;28;20066;-77
2023/11/06 04:59:42;;;;;;;6.00;4.13;;;;;;;;;;9951035;28;20442;-73
2023/11/06 05:04:34;;;;;;;13.30;11.95;;;;;;;;;;9951866;28;20047;-73
2023/11/06 05:09:26;;;;;;;5.35;4.35;;;;;;;;;;9951979;28;20046;-73
2023/11/06 05:14:18;;;;;;;22.42;17.80;;;;;;;;;;9951051;28;20133;-76
2023/11/06 05:19:09;;;;;;;4.50;3.78;;;;;;;;;;9950760;28;20043;-74
2023/11/06 05:24:01;;;;;;;12.80;11.50;;;;;;;;;;9950378;28;20134;-76
2023/11/06 05:28:53;;;;;;;24.15;17.55;;;;;;;;;;9951069;28;20482;-76
2023/11/06 05:33:45;;;;;;;13.07;8.38;;;;;;;;;;9951310;28;20039;-76
2023/11/06 05:38:37;;;;;;;11.13;5.88;;;;;;;;;;9949740;28;20170;-73
2023/11/06 05:43:29;;;;;;;6.88;3.65;;;;;;;;;;9949536;28;20050;-74
2023/11/06 05:48:21;;;;;;;23.35;13.93;;;;;;;;;;9950849;28;20050;-74
2023/11/06 05:53:13;;;;;;;19.38;12.70;;;;;;;;;;9951145;28;20042;-74
2023/11/06 05:58:05;;;;;;;12.40;5.00;;;;;;;;;;9949512;28;20416;-73
2023/11/06 06:03:01;;;;;;;22.17;5.07;;;;;;;;;;9948716;28;20410;-76
2023/11/06 06:07:53;;;;;;;7.25;3.45;;;;;;;;;;9950445;28;20438;-76
2023/11/06 06:12:47;;;;;;;8.43;5.75;;;;;;;;;;9947502;28;20056;-73
2023/11/06 06:17:40;;;;;;;7.25;3.22;;;;;;;;;;9948480;28;20054;-73
2023/11/06 06:22:32;;;;;;;4.93;4.13;;;;;;;;;;9946695;28;20323;-74
2023/11/06 06:27:24;;;;;;;5.78;4.65;;;;;;;;;;9951861;28;20439;-74
2023/11/06 06:32:16;;;;;;;5.03;3.05;;;;;;;;;;9974214;28;20050;-73
2023/11/06 06:37:08;;;;;;;5.40;2.60;;;;;;;;;;9985411;28;20125;-74
2023/11/06 06:41:59;;;;;;;2.17;1.77;;;;;;;;;;9985093;28;20477;-74
2023/11/06 06:46:51;;;;;;;4.63;2.85;;;;;;;;;;9984476;28;20046;-74
2023/11/06 06:51:43;;;;;;;6.15;2.13;;;;;;;;;;9977925;28;20074;-74
2023/11/06 06:56:35;;;;;;;17.35;9.45;;;;;;;;;;9990786;28;20054;-74
2023/11/06 07:01:27;;;;;;;7.93;4.55;;;;;;;;;;9975783;28;20236;-74
2023/11/06 07:06:19;;;;;;;5.65;5.05;;;;;;;;;;9973794;28;20125;-75
2023/11/06 07:11:12;;;;;;;20.27;14.95;;;;;;;;;;9943335;28;20046;-74
2023/11/06 07:16:05;;;;;;;16.45;8.88;;;;;;;;;;9942570;28;20039;-74
2023/11/06 07:20:56;;;;;;;12.20;7.38;;;;;;;;;;9933732;28;20039;-74
2023/11/06 07:25:48;;;;;;;21.80;13.05;;;;;;;;;;9940009;28;20531;-74
2023/11/06 07:30:41;;;;;;;10.13;6.90;;;;;;;;;;9906837;28;20039;-77
2023/11/06 07:35:33;;;;;;;28.75;20.05;;;;;;;;;;9919177;28;20498;-74
2023/11/06 07:40:25;;;;;;;28.75;23.70;;;;;;;;;;9937341;28;20127;-74
2023/11/06 07:45:17;;;;;;;19.38;13.60;;;;;;;;;;9917575;28;20058;-74
2023/11/06 07:50:09;;;;;;;62.70;54.10;;;;;;;;;;9915086;28;20046;-77
2023/11/06 07:55:04;;;;;;;22.05;18.98;;;;;;;;;;9919063;28;20085;-77
2023/11/06 07:59:56;;;;;;;7.28;5.75;;;;;;;;;;9921743;28;20054;-77
2023/11/06 08:04:49;;;;;;;17.95;5.13;;;;;;;;;;9921694;28;20054;-77
2023/11/06 08:09:43;;;;;;;7.40;5.13;;;;;;;;;;9919210;28;20079;-77
2023/11/06 08:14:35;;;;;;;7.90;3.72;;;;;;;;;;9924350;28;20390;-76
2023/11/06 08:19:27;;;;;;;8.55;3.10;;;;;;;;;;9918311;28;20142;-76
2023/11/06 08:24:19;;;;;;;23.80;14.80;;;;;;;;;;9930237;28;20122;-76
2023/11/06 08:29:12;;;;;;;9.27;6.90;;;;;;;;;;9921195;28;20173;-78
2023/11/06 08:34:04;;;;;;;47.50;37.85;;;;;;;;;;9948816;28;20098;-79
2023/11/06 08:38:57;;;;;;;6.97;3.20;;;;;;;;;;9949153;28;20070;-79
2023/11/06 08:43:49;;;;;;;10.70;3.55;;;;;;;;;;9947508;28;20055;-77
2023/11/06 08:48:42;;;;;;;11.55;4.78;;;;;;;;;;10031826;23;20153;-77
2023/11/06 08:53:34;;;;;;;5.30;1.65;;;;;;;;;;9981805;28;20050;-77
2023/11/06 08:58:26;;;;;;;6.00;2.50;;;;;;;;;;9984606;28;20043;-77
2023/11/06 09:03:17;;;;;;;7.60;2.63;;;;;;;;;;9979379;28;20449;-73
2023/11/06 09:08:09;;;;;;;10.95;4.88;;;;;;;;;;9967008;28;20038;-74
2023/11/06 09:13:02;;;;;;;9.38;5.07;;;;;;;;;;9965372;28;20046;-74
2023/11/06 09:17:54;;;;;;;9.25;5.32;;;;;;;;;;9975936;28;20066;-74
2023/11/06 09:22:46;;;;;;;14.73;6.70;;;;;;;;;;9979681;28;20058;-74
2023/11/06 09:27:38;;;;;;;18.90;9.73;;;;;;;;;;9976351;28;20457;-74
2023/11/06 09:32:30;;;;;;;17.48;11.75;;;;;;;;;;9986422;28;20303;-74
2023/11/06 09:37:22;;;;;;;15.57;10.63;;;;;;;;;;9986121;28;20137;-73
2023/11/06 09:42:14;;;;;;;16.85;11.63;;;;;;;;;;9985185;28;20137;-74
2023/11/06 09:47:07;;;;;;;17.23;10.05;;;;;;;;;;9985525;28;20074;-74
2023/11/06 09:52:03;;;;;;;11.00;9.10;;;;;;;;;;9985516;28;20093;-75
2023/11/06 09:56:55;;;;;;;12.70;9.20;;;;;;;;;;9978738;28;20129;-78
2023/11/06 10:01:49;;;;;;;13.35;8.95;;;;;;;;;;9985096;28;20058;-75
2023/11/06 10:06:44;;;;;;;10.05;8.27;;;;;;;;;;9964996;28;20058;-75
2023/11/06 10:11:37;;;;;;;12.10;8.52;;;;;;;;;;9984853;28;20424;-75
2023/11/06 10:16:29;;;;;;;12.95;7.35;;;;;;;;;;9967499;28;20086;-75
2023/11/06 10:21:29;;;;;;;14.73;8.80;;;;;;;;;;9970148;28;20050;-75
2023/11/06 10:26:27;;;;;;;4.78;2.00;;;;;;;;;;9967898;28;20133;-75
2023/11/06 10:31:41;;;;;;;5.40;3.60;;;;;;;;;;9973529;28;20481;-75
2023/11/06 10:36:32;;;;;;;11.45;5.60;;;;;;;;;;9975438;28;20488;-75
2023/11/06 10:41:25;;;;;;;6.80;3.95;;;;;;;;;;9980923;28;20039;-76
2023/11/06 10:46:19;;;;;;;5.28;1.13;;;;;;;;;;9984180;28;20043;-75
2023/11/06 10:51:12;;;;;;;5.65;1.38;;;;;;;;;;9969610;28;20055;-75
2023/11/06 10:56:04;;;;;;;2.60;1.60;;;;;;;;;;9955807;28;20038;-78
2023/11/06 11:00:58;;;;;;;5.03;2.83;;;;;;;;;;9973328;28;20440;-76
2023/11/06 11:05:53;;;;;;;9.55;4.43;;;;;;;;;;9983220;28;20042;-78
2023/11/06 11:10:45;;;;;;;8.93;4.32;;;;;;;;;;9976147;28;20062;-75
2023/11/06 11:15:37;;;;;;;9.35;4.88;;;;;;;;;;9983299;28;20073;-76
2023/11/06 11:20:49;;;;;;;13.98;4.78;;;;;;;;;;9976713;28;20532;-75
2023/11/06 11:25:57;;;;;;;13.20;6.53;;;;;;;;;;9985063;28;20042;-76
2023/11/06 11:30:49;;;;;;;9.45;3.00;;;;;;;;;;9992587;28;20042;-75
2023/11/06 11:35:47;;;;;;;4.53;1.90;;;;;;;;;;9981319;28;20061;-76
2023/11/06 11:40:42;;;;;;;1.77;0.90;;;;;;;;;;9967662;28;20034;-75
2023/11/06 11:45:35;;;;;;;4.82;1.20;;;;;;;;;;9967263;28;20069;-75
2023/11/06 11:50:27;;;;;;;3.30;1.20;;;;;;;;;;9985385;28;20342;-75
2023/11/06 11:55:34;;;;;;;1.25;0.95;;;;;;;;;;9979664;28;20042;-74
2023/11/06 12:00:27;;;;;;;3.25;0.95;;;;;;;;;;9968558;28;20418;-74
2023/11/06 12:05:19;;;;;;;3.50;2.50;;;;;;;;;;9990343;28;20042;-75
2023/11/06 12:10:15;;;;;;;12.98;4.50;;;;;;;;;;9990065;28;20084;-74
2023/11/06 12:15:10;;;;;;;1.92;1.15;;;;;;;;;;9989215;28;20046;-74
2023/11/06 12:20:08;;;;;;;2.38;1.25;;;;;;;;;;9954767;28;20050;-74
2023/11/06 12:25:01;;;;;;;;;;;;;;;;;;9970381;28;20054;-74
2023/11/06 12:30:00;;;;;;;8.05;4.75;;;;;;;;;;9979932;28;19922;-74
2023/11/06 12:35:14;;;;;;;5.07;3.05;;;;;;;;;;9983905;28;20457;-74
2023/11/06 12:40:16;;;;;;;2.72;1.25;;;;;;;;;;9950725;28;20061;-74
2023/11/06 12:45:47;;;;;;;4.43;1.60;;;;;;;;;;9965113;28;20050;-74
2023/11/06 12:50:39;;;;;;;2.22;0.93;;;;;;;;;;9867007;29;20351;-74
2023/11/06 12:55:31;;;;;;;1.70;0.95;;;;;;;;;;9943211;28;20109;-74
2023/11/06 13:00:27;;;;;;;6.88;1.40;;;;;;;;;;9948464;28;20058;-74
2023/11/06 13:05:20;;;;;;;2.45;1.98;;;;;;;;;;9952854;28;20050;-75
2023/11/06 13:10:13;;;;;;;3.92;1.10;;;;;;;;;;9948145;28;20050;-74
2023/11/06 13:15:10;;;;;;;2.97;0.85;;;;;;;;;;9951517;28;20126;-74
2023/11/06 13:20:02;;;;;;;3.83;2.38;;;;;;;;;;9949380;28;20047;-74
2023/11/06 13:24:55;;;;;;;1.90;0.90;;;;;;;;;;9949301;28;20092;-74
2023/11/06 13:29:47;;;;;;;1.95;0.98;;;;;;;;;;9950840;28;20457;-75
2023/11/06 13:34:39;;;;;;;3.13;1.70;;;;;;;;;;9955952;28;20100;-74
2023/11/06 13:39:31;;;;;;;9.88;2.33;;;;;;;;;;9949110;28;20062;-74
2023/11/06 13:44:24;;;;;;;0.82;0.65;;;;;;;;;;9946702;28;20095;-74
2023/11/06 13:49:18;;;;;;;1.77;1.13;;;;;;;;;;9945817;28;20058;-74
2023/11/06 13:54:34;;;;;;;7.30;1.08;;;;;;;;;;9963186;28;20073;-76
2023/11/06 13:59:29;;;;;;;2.45;1.33;;;;;;;;;;9962603;28;20374;-74
2023/11/06 14:04:21;;;;;;;3.47;1.65;;;;;;;;;;9950433;28;20055;-74
2023/11/06 14:14:24;;;;;;;2.03;1.02;;;;;;;;;;9954622;28;20043;-76
2023/11/06 14:19:17;;;;;;;3.10;1.00;;;;;;;;;;9948748;28;20070;-76
2023/11/06 14:24:10;;;;;;;2.88;0.98;;;;;;;;;;9948156;28;20421;-77
2023/11/06 14:29:02;;;;;;;3.67;1.00;;;;;;;;;;9951901;28;20046;-77
2023/11/06 14:33:53;;;;;;;3.25;1.13;;;;;;;;;;9949317;28;20046;-77
2023/11/06 14:38:45;;;;;;;0.98;0.70;;;;;;;;;;9948425;28;20050;-77
2023/11/06 14:43:37;;;;;;;1.73;0.80;;;;;;;;;;9948839;28;20149;-77
2023/11/06 14:48:29;;;;;;;1.75;1.23;;;;;;;;;;9955434;28;20120;-76
2023/11/06 14:53:21;;;;;;;3.08;0.80;;;;;;;;;;9956147;28;20035;-75
2023/11/06 14:58:28;;;;;;;1.42;0.90;;;;;;;;;;9960826;28;20481;-76
2023/11/06 15:03:20;;;;;;;2.67;1.27;;;;;;;;;;9954789;28;20050;-76
2023/11/06 15:08:15;;;;;;;2.55;1.85;;;;;;;;;;9955170;28;20042;-75
2023/11/06 15:13:08;;;;;;;3.10;1.00;;;;;;;;;;9954533;28;20065;-76
2023/11/06 15:18:00;;;;;;;2.05;1.17;;;;;;;;;;9953694;28;20105;-76
2023/11/06 15:22:55;;;;;;;3.42;2.60;;;;;;;;;;9955465;28;20070;-76
2023/11/06 15:27:52;;;;;;;7.57;3.65;;;;;;;;;;9955395;28;20050;-76
2023/11/06 15:32:45;;;;;;;6.75;3.35;;;;;;;;;;9955686;28;20129;-76
2023/11/06 15:37:39;;;;;;;3.38;1.63;;;;;;;;;;9954633;28;20377;-76
2023/11/06 15:42:31;;;;;;;8.18;2.00;;;;;;;;;;9955450;28;20382;-76
2023/11/06 15:47:23;;;;;;;14.45;8.18;;;;;;;;;;9954164;28;20438;-76
2023/11/06 15:52:15;;;;;;;13.32;4.00;;;;;;;;;;9936352;28;20093;-75
2023/11/06 15:57:08;;;;;;;3.83;1.10;;;;;;;;;;9961760;28;20365;-75
2023/11/06 16:02:00;;;;;;;1.95;1.13;;;;;;;;;;9952057;28;20077;-76
2023/11/06 16:06:52;;;;;;;1.92;1.60;;;;;;;;;;9950601;28;20043;-75
2023/11/06 16:11:44;;;;;;;3.88;1.85;;;;;;;;;;9943608;28;20047;-75
2023/11/06 16:16:36;;;;;;;2.90;1.85;;;;;;;;;;9955937;28;20046;-75
2023/11/06 16:21:32;;;;;;;2.67;1.20;;;;;;;;;;9952055;28;20122;-75
2023/11/06 16:26:23;;;;;;;9.65;4.47;;;;;;;;;;9956560;28;20089;-75
2023/11/06 16:31:15;;;;;;;5.75;2.20;;;;;;;;;;9952343;28;20297;-75
2023/11/06 16:36:10;;;;;;;4.15;3.05;;;;;;;;;;9952847;28;20074;-76
2023/11/06 16:41:04;;;;;;;5.95;3.97;;;;;;;;;;9950826;28;20046;-75
2023/11/06 16:45:56;;;;;;;3.30;1.60;;;;;;;;;;9951507;28;20141;-75
2023/11/06 16:50:48;;;;;;;3.90;2.38;;;;;;;;;;9968137;28;20421;-75
2023/11/06 16:55:40;;;;;;;3.63;3.33;;;;;;;;;;9969658;28;20061;-75
2023/11/06 17:00:31;;;;;;;10.55;6.35;;;;;;;;;;9977640;28;20428;-75
2023/11/06 17:05:25;;;;;;;2.33;1.98;;;;;;;;;;9967939;28;20054;-75
2023/11/06 17:10:18;;;;;;;9.38;2.85;;;;;;;;;;9972558;28;20093;-75
2023/11/06 17:15:10;;;;;;;51.28;37.05;;;;;;;;;;9987944;28;20046;-74
2023/11/06 17:20:10;;;;;;;7.43;1.90;;;;;;;;;;9988662;28;20056;-75
2023/11/06 17:25:04;;;;;;;8.02;3.45;;;;;;;;;;9974513;28;20058;-75
2023/11/06 17:29:57;;;;;;;3.63;1.40;;;;;;;;;;9979376;28;20458;-75
2023/11/06 17:34:48;;;;;;;4.90;1.70;;;;;;;;;;9987962;28;20054;-75
2023/11/06 17:39:42;;;;;;;4.03;1.67;;;;;;;;;;9987109;28;20042;-75
2023/11/06 17:44:34;;;;;;;2.55;1.73;;;;;;;;;;9987933;28;20105;-75
2023/11/06 17:49:26;;;;;;;40.00;31.95;;;;;;;;;;9985167;28;20050;-74
2023/11/06 17:54:18;;;;;;;8.50;5.00;;;;;;;;;;9983864;28;20451;-75
2023/11/06 17:59:11;;;;;;;9.20;3.08;;;;;;;;;;9980195;28;20082;-74
2023/11/06 18:04:03;;;;;;;14.88;12.88;;;;;;;;;;9986818;28;20050;-74
2023/11/06 18:08:55;;;;;;;13.77;7.00;;;;;;;;;;9986014;28;20077;-74
2023/11/06 18:13:47;;;;;;;4.18;3.50;;;;;;;;;;9958968;28;20082;-74
2023/11/06 18:18:39;;;;;;;3.92;2.97;;;;;;;;;;9971383;28;20129;-75
2023/11/06 18:23:33;;;;;;;6.50;2.72;;;;;;;;;;9974671;28;20410;-74
2023/11/06 18:28:26;;;;;;;5.03;3.10;;;;;;;;;;9968904;28;20478;-74
2023/11/06 18:33:18;;;;;;;6.50;3.75;;;;;;;;;;9955888;28;20190;-74
2023/11/06 18:38:11;;;;;;;5.75;3.75;;;;;;;;;;9986266;28;20052;-77
2023/11/06 18:43:03;;;;;;;4.15;2.55;;;;;;;;;;9982303;28;20051;-73
2023/11/06 18:47:55;;;;;;;6.18;3.95;;;;;;;;;;9985523;28;20074;-74
2023/11/06 18:52:48;;;;;;;4.82;2.65;;;;;;;;;;9986602;28;20058;-73
2023/11/06 18:57:40;;;;;;;4.68;3.05;;;;;;;;;;9986402;28;20074;-75
2023/11/06 19:02:31;;;;;;;4.30;1.70;;;;;;;;;;9986566;28;20051;-74
2023/11/06 19:07:25;;;;;;;2.03;1.80;;;;;;;;;;9973220;28;20047;-74
2023/11/06 19:12:17;;;;;;;7.80;3.45;;;;;;;;;;9986743;28;20112;-73
2023/11/06 19:17:09;;;;;;;21.98;18.88;;;;;;;;;;9986115;28;20046;-73
2023/11/06 19:22:01;;;;;;;20.00;15.90;;;;;;;;;;9972117;28;20495;-73
2023/11/06 19:26:54;;;;;;;28.73;25.58;;;;;;;;;;9943153;28;20050;-74
2023/11/06 19:31:50;;;;;;;11.57;9.30;;;;;;;;;;9959218;28;20046;-74
2023/11/06 19:36:43;;;;;;;112.88;86.88;;;;;;;;;;10011019;28;20064;-73
2023/11/06 19:41:34;;;;;;;17.77;16.02;;;;;;;;;;10028173;28;20073;-73
2023/11/06 19:46:26;;;;;;;5.88;3.92;;;;;;;;;;10030993;28;20046;-73
2023/11/06 19:51:18;;;;;;;7.32;5.38;;;;;;;;;;10027852;28;20046;-73
2023/11/06 19:56:10;;;;;;;14.63;6.97;;;;;;;;;;10025412;28;20057;-73
2023/11/06 20:01:04;;;;;;;9.73;5.88;;;;;;;;;;10019439;28;20126;-73
2023/11/06 20:05:56;;;;;;;9.60;5.88;;;;;;;;;;10028057;28;20555;-74
2023/11/06 20:10:48;;;;;;;13.38;7.00;;;;;;;;;;10030805;28;20053;-73
2023/11/06 20:15:40;;;;;;;12.23;8.90;;;;;;;;;;10022461;28;20054;-74
2023/11/06 20:20:32;;;;;;;14.23;8.20;;;;;;;;;;10026864;28;20046;-73
2023/11/06 20:25:24;;;;;;;15.63;8.75;;;;;;;;;;10022080;28;20060;-73
2023/11/06 20:30:17;;;;;;;8.13;5.38;;;;;;;;;;10026233;28;20073;-73
2023/11/06 20:35:10;;;;;;;13.90;7.28;;;;;;;;;;10016968;28;20045;-73
2023/11/06 20:40:02;;;;;;;5.00;2.55;;;;;;;;;;10017932;28;20065;-73
2023/11/06 20:44:55;;;;;;;6.35;4.38;;;;;;;;;;10042145;28;20065;-73
2023/11/06 20:49:47;;;;;;;6.70;3.15;;;;;;;;;;10049432;28;20061;-73
2023/11/06 20:54:40;;;;;;;3.95;2.72;;;;;;;;;;10044189;28;20073;-73
2023/11/06 20:59:33;;;;;;;11.13;7.65;;;;;;;;;;10068318;28;20388;-73
2023/11/06 21:04:25;;;;;;;14.90;8.38;;;;;;;;;;10066570;28;20057;-73
2023/11/06 21:09:17;;;;;;;6.35;3.17;;;;;;;;;;10068355;28;20077;-73
2023/11/06 21:14:09;;;;;;;5.50;3.28;;;;;;;;;;10067603;28;20045;-73
2023/11/06 21:19:02;;;;;;;5.88;3.10;;;;;;;;;;10067456;28;20069;-73
2023/11/06 21:24:00;;;;;;;8.60;4.43;;;;;;;;;;10049900;28;20077;-74
2023/11/06 21:28:52;;;;;;;7.23;2.83;;;;;;;;;;10064221;28;20038;-73
2023/11/06 21:33:45;;;;;;;5.45;1.67;;;;;;;;;;10066057;28;20535;-73
2023/11/06 21:38:40;;;;;;;5.43;2.20;;;;;;;;;;10066087;28;20085;-73
2023/11/06 21:43:32;;;;;;;5.88;3.83;;;;;;;;;;10067051;28;20128;-74
2023/11/06 21:48:24;;;;;;;6.00;2.95;;;;;;;;;;10066054;28;20184;-73
2023/11/06 21:53:16;;;;;;;5.50;3.63;;;;;;;;;;10062225;28;20052;-74
2023/11/06 21:58:08;;;;;;;3.92;2.25;;;;;;;;;;10065541;28;20049;-74
2023/11/06 22:03:01;;;;;;;4.07;3.28;;;;;;;;;;10053250;28;20535;-73
2023/11/06 22:07:53;;;;;;;4.10;2.03;;;;;;;;;;10066070;28;20129;-73
2023/11/06 22:12:45;;;;;;;6.18;2.03;;;;;;;;;;10066223;28;20050;-73
2023/11/06 22:17:37;;;;;;;2.20;1.15;;;;;;;;;;10066666;28;20106;-73
2023/11/06 22:22:28;;;;;;;3.05;2.00;;;;;;;;;;10059963;28;20542;-73
2023/11/06 22:27:21;;;;;;;4.20;2.33;;;;;;;;;;10065383;28;20487;-73
2023/11/06 22:32:13;;;;;;;8.73;2.25;;;;;;;;;;10064816;28;20050;-74
2023/11/06 22:37:05;;;;;;;6.95;2.20;;;;;;;;;;10064155;28;20052;-73
2023/11/06 22:41:58;;;;;;;2.17;1.40;;;;;;;;;;10064549;28;20480;-73
2023/11/06 22:46:51;;;;;;;6.82;1.67;;;;;;;;;;10027363;28;20050;-73
2023/11/06 22:51:43;;;;;;;2.65;1.00;;;;;;;;;;10059210;28;20100;-74
2023/11/06 22:56:36;;;;;;;4.93;1.48;;;;;;;;;;10064306;28;20088;-73
2023/11/06 23:01:28;;;;;;;1.42;1.20;;;;;;;;;;10065344;28;20121;-73
2023/11/06 23:06:20;;;;;;;3.17;1.42;;;;;;;;;;10068143;28;20054;-73
2023/11/06 23:11:12;;;;;;;2.13;1.38;;;;;;;;;;10072311;28;20357;-73
2023/11/06 23:16:05;;;;;;;2.47;2.20;;;;;;;;;;10072511;28;20092;-73
2023/11/06 23:20:57;;;;;;;5.63;2.10;;;;;;;;;;10067656;28;20041;-73
2023/11/06 23:25:49;;;;;;;5.78;2.05;;;;;;;;;;10071232;28;20516;-73
2023/11/06 23:30:41;;;;;;;4.15;2.15;;;;;;;;;;10071761;28;20054;-73
2023/11/06 23:35:34;;;;;;;2.28;1.40;;;;;;;;;;10071354;28;20049;-73
2023/11/06 23:40:27;;;;;;;3.67;1.48;;;;;;;;;;10071625;28;20435;-73
2023/11/06 23:45:25;;;;;;;1.52;1.20;;;;;;;;;;10071164;28;20137;-73
2023/11/06 23:50:17;;;;;;;4.00;1.45;;;;;;;;;;10061361;28;20049;-73
2023/11/06 23:55:09;;;;;;;4.50;1.63;;;;;;;;;;10067954;28;20095;-73
